Ida — C4CZ2 — position and weather

sailwx.info

Track history (hours):
 
Tides and Currents Weather Stations Pressure Air Temp Water Temp Dewpoint Dewpoint Depression Visibility Wind Speed Wind Dir Waves Ship Positions

Ida

Last reported at 2017-Mar-27 06:31 UTC. Time now 2017-Mar-27 06:42 UTC.
Position N 56°09' E 010°13'.

Length 82 m; draft 3.9 m.

Type: Cargo ship. MMSI: 210319000.

Date/timePositionNaut miles runAvg speedWind from/ knotsBaromVisibWave heightAir tempDewpointWater temp
2017-Mar-27 06:31N 56°09' E 010°13'0 0.0
2017-Mar-27 05:31N 56°09' E 010°13'0 0.0
2017-Mar-27 04:31N 56°09' E 010°13'0 0.0
2017-Mar-27 03:31N 56°09' E 010°13'0 0.0
2017-Mar-27 02:31N 56°09' E 010°13'0 0.0
2017-Mar-27 01:31N 56°09' E 010°13'0 0.0
2017-Mar-27 00:31N 56°09' E 010°13'0 0.0
2017-Mar-26 23:31N 56°09' E 010°13'0 0.0
2017-Mar-26 22:31N 56°09' E 010°13'0 0.0
2017-Mar-26 21:31N 56°09' E 010°13'0 0.0
2017-Mar-26 20:31N 56°09' E 010°13'0 0.0
2017-Mar-26 19:31N 56°09' E 010°13'0 0.0
2017-Mar-26 18:31N 56°09' E 010°13'0 0.0
2017-Mar-26 17:31N 56°09' E 010°13'0 0.0
2017-Mar-26 16:31N 56°09' E 010°13'0 0.0
2017-Mar-26 15:31N 56°09' E 010°13'0 0.0
2017-Mar-26 14:31N 56°09' E 010°13'0 0.0
2017-Mar-26 13:31N 56°09' E 010°13'0 0.0
2017-Mar-26 12:31N 56°09' E 010°13'0 0.0
2017-Mar-26 11:31N 56°09' E 010°13'0 0.0
2017-Mar-26 10:33N 56°09' E 010°13'0 0.0
2017-Mar-26 09:33N 56°09' E 010°13'0 0.0
2017-Mar-26 08:33N 56°09' E 010°13'0 0.0
2017-Mar-26 07:34N 56°09' E 010°13'1 0.9
2017-Mar-26 06:33N 56°09' E 010°14'8 7.9
2017-Mar-26 05:33N 56°06' E 010°27'8 8.1
2017-Mar-26 04:33N 56°05' E 010°42'8 7.7
2017-Mar-26 03:28N 56°13' E 010°49'16 8.2
2017-Mar-26 01:33N 56°26' E 011°05'34 8.5
2017-Mar-25 21:31N 56°59' E 010°51'9 8.9
2017-Mar-25 20:33N 57°07' E 010°46'9 8.9
2017-Mar-25 19:33N 57°16' E 010°42'9 8.9
2017-Mar-25 18:33N 57°25' E 010°43'9 9.2
2017-Mar-25 17:32N 57°34' E 010°44'10 9.9
2017-Mar-25 16:33N 57°44' E 010°45'9 8.5
2017-Mar-25 15:33N 57°46' E 010°30'10 9.9
2017-Mar-25 14:33N 57°43' E 010°12'10 9.9
2017-Mar-25 13:33N 57°39' E 009°55'10 9.7
2017-Mar-25 12:33N 57°34' E 009°40'144 8.8
2017-Mar-24 20:09N 55°43' E 006°53'5 9.0
2017-Mar-24 19:34N 55°38' E 006°48'9 9.0
2017-Mar-24 18:34N 55°30' E 006°41'9 9.0
2017-Mar-24 17:33N 55°23' E 006°34'41 9.1
2017-Mar-24 13:04N 54°49' E 005°53'7 8.8
2017-Mar-24 12:13N 54°43' E 005°46'6 8.7
2017-Mar-24 11:33N 54°38' E 005°41'107 8.0
2017-Mar-23 22:09N 53°01' E 004°22'4 6.3
2017-Mar-23 21:28N 52°57' E 004°19'18 5.7
2017-Mar-23 18:23N 52°39' E 004°14'6 7.3
2017-Mar-23 17:34N 52°35' E 004°21'8 8.1
2017-Mar-23 16:33N 52°29' E 004°30'5 4.5
2017-Mar-23 15:33N 52°28' E 004°37'9 8.8
2017-Mar-23 14:34N 52°25' E 004°51'1 1.4
2017-Mar-23 13:31N 52°24' E 004°52'1 0.6
2017-Mar-23 12:31N 52°24' E 004°51'0 0.0
2017-Mar-23 11:31N 52°24' E 004°51'0 0.0
2017-Mar-23 10:31N 52°24' E 004°51'0 0.2
2017-Mar-23 09:34N 52°24' E 004°52'0 0.4
2017-Mar-23 08:31N 52°24' E 004°52'0 0.0
2017-Mar-23 07:31N 52°24' E 004°52'0 0.0
2017-Mar-23 06:32N 52°24' E 004°52'0 0.0
2017-Mar-23 05:32N 52°24' E 004°52'0 0.0
2017-Mar-23 04:32N 52°24' E 004°52'0 0.0
2017-Mar-23 03:31N 52°24' E 004°52'0 0.0
2017-Mar-23 02:32N 52°24' E 004°52'0 0.0
2017-Mar-23 01:31N 52°24' E 004°52'0 0.0
2017-Mar-23 00:31N 52°24' E 004°52'0 0.0
2017-Mar-22 23:28N 52°24' E 004°52'0 0.0
2017-Mar-22 22:32N 52°24' E 004°52'0 0.0
2017-Mar-22 21:32N 52°24' E 004°52'0 0.0
2017-Mar-22 20:32N 52°24' E 004°52'0 0.0
2017-Mar-22 19:29N 52°24' E 004°52'0 0.0
2017-Mar-22 18:32N 52°24' E 004°52'0 0.0
2017-Mar-22 17:31N 52°24' E 004°52'0 0.0
2017-Mar-22 16:32N 52°24' E 004°52'0 0.0
2017-Mar-22 15:32N 52°24' E 004°52'0 0.0
2017-Mar-22 14:32N 52°24' E 004°52'0 0.0
2017-Mar-22 13:32N 52°24' E 004°52'0 0.0
2017-Mar-22 12:25N 52°24' E 004°52'0 0.0
2017-Mar-22 11:31N 52°24' E 004°52'0 0.0
2017-Mar-22 10:32N 52°24' E 004°52'0 0.0
2017-Mar-22 09:31N 52°24' E 004°52'0 0.0
2017-Mar-22 08:31N 52°24' E 004°52'0 0.0
2017-Mar-22 07:31N 52°24' E 004°52'0 0.0
2017-Mar-22 06:32N 52°24' E 004°52'0 0.0
2017-Mar-22 05:31N 52°24' E 004°52'0 0.0
2017-Mar-22 04:31N 52°24' E 004°52'0 0.0
2017-Mar-22 03:32N 52°24' E 004°52'0 0.0
2017-Mar-22 02:32N 52°24' E 004°52'0 0.0
2017-Mar-22 01:26N 52°24' E 004°52'0 0.0
2017-Mar-22 00:31N 52°24' E 004°52'0 0.0
2017-Mar-21 23:29N 52°24' E 004°52'0 0.0
2017-Mar-21 22:32N 52°24' E 004°52'0 0.0
2017-Mar-21 21:32N 52°24' E 004°52'0 0.0
2017-Mar-21 20:31N 52°24' E 004°52'0 0.0
2017-Mar-21 19:31N 52°24' E 004°52'0 0.0
2017-Mar-21 18:31N 52°24' E 004°52'0 0.0
2017-Mar-21 17:32N 52°24' E 004°52'0 0.0
2017-Mar-21 16:31N 52°24' E 004°52'0 0.0
2017-Mar-21 15:32N 52°24' E 004°52'0 0.0
2017-Mar-21 14:28N 52°24' E 004°52'0 0.0
2017-Mar-21 13:31N 52°24' E 004°52'0 0.0
2017-Mar-21 12:29N 52°24' E 004°52'0 0.0
2017-Mar-21 11:32N 52°24' E 004°52'0 0.0
2017-Mar-21 10:31N 52°24' E 004°52'0 0.0
2017-Mar-21 09:32N 52°24' E 004°52'0 0.0
2017-Mar-21 08:32N 52°24' E 004°52'0 0.0
2017-Mar-21 07:31N 52°24' E 004°52'0 0.0
2017-Mar-21 06:31N 52°24' E 004°52'0 0.0
2017-Mar-21 05:32N 52°24' E 004°52'0 0.0
2017-Mar-21 04:31N 52°24' E 004°52'0 0.0
2017-Mar-21 03:31N 52°24' E 004°52'0 0.0
2017-Mar-21 02:32N 52°24' E 004°52'0 0.0
2017-Mar-21 01:32N 52°24' E 004°52'0 0.0
2017-Mar-21 00:26N 52°24' E 004°52'0 0.0
2017-Mar-20 23:32N 52°24' E 004°52'0 0.0
2017-Mar-20 22:32N 52°24' E 004°52'0 0.4
2017-Mar-20 21:33N 52°24' E 004°52'9 9.2
2017-Mar-20 20:33N 52°28' E 004°38'4 3.8
2017-Mar-20 19:33N 52°28' E 004°32'9 9.2
2017-Mar-20 18:33N 52°24' E 004°18'1010.0
2017-Mar-20 17:33N 52°17' E 004°07'10 9.8
2017-Mar-20 16:33N 52°09' E 003°57'9 9.4
2017-Mar-20 15:33N 52°03' E 003°46'9 8.9
2017-Mar-20 14:33N 51°57' E 003°35'53 2.5
2017-Mar-19 17:29N 51°31' E 002°21'1011.0
2017-Mar-19 16:33N 51°23' E 002°12'1110.9
2017-Mar-19 15:34N 51°14' E 002°02'1111.4
2017-Mar-19 14:34N 51°06' E 001°48'1111.1
2017-Mar-19 13:33N 50°58' E 001°36'10 9.7
2017-Mar-19 12:30N 50°50' E 001°26'20 8.8
2017-Mar-19 10:11N 50°35' E 001°04'6 8.9
2017-Mar-19 09:33N 50°31' E 000°57'9 9.2
2017-Mar-19 08:31N 50°29' E 000°43'9 8.9
2017-Mar-19 07:30N 50°26' E 000°29'19 8.7
2017-Mar-19 05:19N 50°21' E 000°01'8 8.7
2017-Mar-19 04:21N 50°22' W 000°12'6210.7
2017-Mar-18 22:31N 50°31' W 001°49'19 1.0
2017-Mar-18 04:34N 50°34' W 002°18'14 6.8
2017-Mar-18 02:33N 50°32' W 001°57'5 5.4
2017-Mar-18 01:33N 50°33' W 001°49'4 3.7
2017-Mar-18 00:32N 50°33' W 001°43'22 3.6
2017-Mar-17 18:14N 50°32' W 001°07'34 9.2
2017-Mar-17 14:33N 50°33' W 000°14'9 8.3
2017-Mar-17 13:30N 50°33' W 000°01'7 7.3
2017-Mar-17 12:33N 50°34' E 000°10'7 6.9
2017-Mar-17 11:33N 50°36' E 000°21'7 7.4
2017-Mar-17 10:33N 50°38' E 000°32'13 9.2
2017-Mar-17 09:11N 50°45' E 000°48'2810.8
2017-Mar-17 06:33N 51°02' E 001°24'  
Track history (hours):
 
Tides and Currents Weather Stations Pressure Air Temp Water Temp Dewpoint Dewpoint Depression Visibility Wind Speed Wind Dir Waves Ship Positions

Ida

Last reported at 2017-Mar-27 06:31 UTC. Time now 2017-Mar-27 06:42 UTC.
Position N 56°09' E 010°13'.

Length 82 m; draft 3.9 m.

Type: Cargo ship. MMSI: 210319000.

Date/timePositionNaut miles runAvg speedWind from/ knotsBaromVisibWave heightAir tempDewpointWater temp
2017-Mar-27 06:31N 56°09' E 010°13'0 0.0
2017-Mar-27 05:31N 56°09' E 010°13'0 0.0
2017-Mar-27 04:31N 56°09' E 010°13'0 0.0
2017-Mar-27 03:31N 56°09' E 010°13'0 0.0
2017-Mar-27 02:31N 56°09' E 010°13'0 0.0
2017-Mar-27 01:31N 56°09' E 010°13'0 0.0
2017-Mar-27 00:31N 56°09' E 010°13'0 0.0
2017-Mar-26 23:31N 56°09' E 010°13'0 0.0
2017-Mar-26 22:31N 56°09' E 010°13'0 0.0
2017-Mar-26 21:31N 56°09' E 010°13'0 0.0
2017-Mar-26 20:31N 56°09' E 010°13'0 0.0
2017-Mar-26 19:31N 56°09' E 010°13'0 0.0
2017-Mar-26 18:31N 56°09' E 010°13'0 0.0
2017-Mar-26 17:31N 56°09' E 010°13'0 0.0
2017-Mar-26 16:31N 56°09' E 010°13'0 0.0
2017-Mar-26 15:31N 56°09' E 010°13'0 0.0
2017-Mar-26 14:31N 56°09' E 010°13'0 0.0
2017-Mar-26 13:31N 56°09' E 010°13'0 0.0
2017-Mar-26 12:31N 56°09' E 010°13'0 0.0
2017-Mar-26 11:31N 56°09' E 010°13'0 0.0
2017-Mar-26 10:33N 56°09' E 010°13'0 0.0
2017-Mar-26 09:33N 56°09' E 010°13'0 0.0
2017-Mar-26 08:33N 56°09' E 010°13'0 0.0
2017-Mar-26 07:34N 56°09' E 010°13'1 0.9
2017-Mar-26 06:33N 56°09' E 010°14'8 7.9
2017-Mar-26 05:33N 56°06' E 010°27'8 8.1
2017-Mar-26 04:33N 56°05' E 010°42'8 7.7
2017-Mar-26 03:28N 56°13' E 010°49'16 8.2
2017-Mar-26 01:33N 56°26' E 011°05'34 8.5
2017-Mar-25 21:31N 56°59' E 010°51'9 8.9
2017-Mar-25 20:33N 57°07' E 010°46'9 8.9
2017-Mar-25 19:33N 57°16' E 010°42'9 8.9
2017-Mar-25 18:33N 57°25' E 010°43'9 9.2
2017-Mar-25 17:32N 57°34' E 010°44'10 9.9
2017-Mar-25 16:33N 57°44' E 010°45'9 8.5
2017-Mar-25 15:33N 57°46' E 010°30'10 9.9
2017-Mar-25 14:33N 57°43' E 010°12'10 9.9
2017-Mar-25 13:33N 57°39' E 009°55'10 9.7
2017-Mar-25 12:33N 57°34' E 009°40'144 8.8
2017-Mar-24 20:09N 55°43' E 006°53'5 9.0
2017-Mar-24 19:34N 55°38' E 006°48'9 9.0
2017-Mar-24 18:34N 55°30' E 006°41'9 9.0
2017-Mar-24 17:33N 55°23' E 006°34'41 9.1
2017-Mar-24 13:04N 54°49' E 005°53'7 8.8
2017-Mar-24 12:13N 54°43' E 005°46'6 8.7
2017-Mar-24 11:33N 54°38' E 005°41'107 8.0
2017-Mar-23 22:09N 53°01' E 004°22'4 6.3
2017-Mar-23 21:28N 52°57' E 004°19'18 5.7
2017-Mar-23 18:23N 52°39' E 004°14'6 7.3
2017-Mar-23 17:34N 52°35' E 004°21'8 8.1
2017-Mar-23 16:33N 52°29' E 004°30'5 4.5
2017-Mar-23 15:33N 52°28' E 004°37'9 8.8
2017-Mar-23 14:34N 52°25' E 004°51'1 1.4
2017-Mar-23 13:31N 52°24' E 004°52'1 0.6
2017-Mar-23 12:31N 52°24' E 004°51'0 0.0
2017-Mar-23 11:31N 52°24' E 004°51'0 0.0
2017-Mar-23 10:31N 52°24' E 004°51'0 0.2
2017-Mar-23 09:34N 52°24' E 004°52'0 0.4
2017-Mar-23 08:31N 52°24' E 004°52'0 0.0
2017-Mar-23 07:31N 52°24' E 004°52'0 0.0
2017-Mar-23 06:32N 52°24' E 004°52'0 0.0
2017-Mar-23 05:32N 52°24' E 004°52'0 0.0
2017-Mar-23 04:32N 52°24' E 004°52'0 0.0
2017-Mar-23 03:31N 52°24' E 004°52'0 0.0
2017-Mar-23 02:32N 52°24' E 004°52'0 0.0
2017-Mar-23 01:31N 52°24' E 004°52'0 0.0
2017-Mar-23 00:31N 52°24' E 004°52'0 0.0
2017-Mar-22 23:28N 52°24' E 004°52'0 0.0
2017-Mar-22 22:32N 52°24' E 004°52'0 0.0
2017-Mar-22 21:32N 52°24' E 004°52'0 0.0
2017-Mar-22 20:32N 52°24' E 004°52'0 0.0
2017-Mar-22 19:29N 52°24' E 004°52'0 0.0
2017-Mar-22 18:32N 52°24' E 004°52'0 0.0
2017-Mar-22 17:31N 52°24' E 004°52'0 0.0
2017-Mar-22 16:32N 52°24' E 004°52'0 0.0
2017-Mar-22 15:32N 52°24' E 004°52'0 0.0
2017-Mar-22 14:32N 52°24' E 004°52'0 0.0
2017-Mar-22 13:32N 52°24' E 004°52'0 0.0
2017-Mar-22 12:25N 52°24' E 004°52'0 0.0
2017-Mar-22 11:31N 52°24' E 004°52'0 0.0
2017-Mar-22 10:32N 52°24' E 004°52'0 0.0
2017-Mar-22 09:31N 52°24' E 004°52'0 0.0
2017-Mar-22 08:31N 52°24' E 004°52'0 0.0
2017-Mar-22 07:31N 52°24' E 004°52'0 0.0
2017-Mar-22 06:32N 52°24' E 004°52'0 0.0
2017-Mar-22 05:31N 52°24' E 004°52'0 0.0
2017-Mar-22 04:31N 52°24' E 004°52'0 0.0
2017-Mar-22 03:32N 52°24' E 004°52'0 0.0
2017-Mar-22 02:32N 52°24' E 004°52'0 0.0
2017-Mar-22 01:26N 52°24' E 004°52'0 0.0
2017-Mar-22 00:31N 52°24' E 004°52'0 0.0
2017-Mar-21 23:29N 52°24' E 004°52'0 0.0
2017-Mar-21 22:32N 52°24' E 004°52'0 0.0
2017-Mar-21 21:32N 52°24' E 004°52'0 0.0
2017-Mar-21 20:31N 52°24' E 004°52'0 0.0
2017-Mar-21 19:31N 52°24' E 004°52'0 0.0
2017-Mar-21 18:31N 52°24' E 004°52'0 0.0
2017-Mar-21 17:32N 52°24' E 004°52'0 0.0
2017-Mar-21 16:31N 52°24' E 004°52'0 0.0
2017-Mar-21 15:32N 52°24' E 004°52'0 0.0
2017-Mar-21 14:28N 52°24' E 004°52'0 0.0
2017-Mar-21 13:31N 52°24' E 004°52'0 0.0
2017-Mar-21 12:29N 52°24' E 004°52'0 0.0
2017-Mar-21 11:32N 52°24' E 004°52'0 0.0
2017-Mar-21 10:31N 52°24' E 004°52'0 0.0
2017-Mar-21 09:32N 52°24' E 004°52'0 0.0
2017-Mar-21 08:32N 52°24' E 004°52'0 0.0
2017-Mar-21 07:31N 52°24' E 004°52'0 0.0
2017-Mar-21 06:31N 52°24' E 004°52'0 0.0
2017-Mar-21 05:32N 52°24' E 004°52'0 0.0
2017-Mar-21 04:31N 52°24' E 004°52'0 0.0
2017-Mar-21 03:31N 52°24' E 004°52'0 0.0
2017-Mar-21 02:32N 52°24' E 004°52'0 0.0
2017-Mar-21 01:32N 52°24' E 004°52'0 0.0
2017-Mar-21 00:26N 52°24' E 004°52'0 0.0
2017-Mar-20 23:32N 52°24' E 004°52'0 0.0
2017-Mar-20 22:32N 52°24' E 004°52'0 0.4
2017-Mar-20 21:33N 52°24' E 004°52'9 9.2
2017-Mar-20 20:33N 52°28' E 004°38'4 3.8
2017-Mar-20 19:33N 52°28' E 004°32'9 9.2
2017-Mar-20 18:33N 52°24' E 004°18'1010.0
2017-Mar-20 17:33N 52°17' E 004°07'10 9.8
2017-Mar-20 16:33N 52°09' E 003°57'9 9.4
2017-Mar-20 15:33N 52°03' E 003°46'9 8.9
2017-Mar-20 14:33N 51°57' E 003°35'53 2.5
2017-Mar-19 17:29N 51°31' E 002°21'1011.0
2017-Mar-19 16:33N 51°23' E 002°12'1110.9
2017-Mar-19 15:34N 51°14' E 002°02'1111.4
2017-Mar-19 14:34N 51°06' E 001°48'1111.1
2017-Mar-19 13:33N 50°58' E 001°36'10 9.7
2017-Mar-19 12:30N 50°50' E 001°26'20 8.8
2017-Mar-19 10:11N 50°35' E 001°04'6 8.9
2017-Mar-19 09:33N 50°31' E 000°57'9 9.2
2017-Mar-19 08:31N 50°29' E 000°43'9 8.9
2017-Mar-19 07:30N 50°26' E 000°29'19 8.7
2017-Mar-19 05:19N 50°21' E 000°01'8 8.7
2017-Mar-19 04:21N 50°22' W 000°12'6210.7
2017-Mar-18 22:31N 50°31' W 001°49'19 1.0
2017-Mar-18 04:34N 50°34' W 002°18'14 6.8
2017-Mar-18 02:33N 50°32' W 001°57'5 5.4
2017-Mar-18 01:33N 50°33' W 001°49'4 3.7
2017-Mar-18 00:32N 50°33' W 001°43'22 3.6
2017-Mar-17 18:14N 50°32' W 001°07'34 9.2
2017-Mar-17 14:33N 50°33' W 000°14'9 8.3
2017-Mar-17 13:30N 50°33' W 000°01'7 7.3
2017-Mar-17 12:33N 50°34' E 000°10'7 6.9
2017-Mar-17 11:33N 50°36' E 000°21'7 7.4
2017-Mar-17 10:33N 50°38' E 000°32'13 9.2
2017-Mar-17 09:11N 50°45' E 000°48'2810.8
2017-Mar-17 06:33N 51°02' E 001°24'  

Dump ship's entire track history